createdAt,value
2018-06-22T00:01:40.860Z,11.68
2018-06-22T00:04:09.703Z,11.53
2018-06-22T00:06:38.421Z,11.20
2018-06-22T00:09:09.224Z,11.54
2018-06-22T00:11:37.828Z,11.37
2018-06-22T00:14:06.806Z,11.42
2018-06-22T00:16:35.381Z,11.34
2018-06-22T00:19:04.523Z,11.27
2018-06-22T00:21:33.153Z,11.19
2018-06-22T00:24:01.709Z,11.06
2018-06-22T00:26:30.296Z,11.09
2018-06-22T00:28:58.840Z,11.27
2018-06-22T00:31:27.741Z,11.25
2018-06-22T00:33:56.292Z,11.26
2018-06-22T00:36:25.736Z,11.31
2018-06-22T00:38:54.311Z,11.10
2018-06-22T00:41:23.340Z,11.16
2018-06-22T00:43:51.915Z,10.95
2018-06-22T00:46:20.480Z,10.94
2018-06-22T00:48:49.053Z,10.35
2018-06-22T00:51:17.605Z,10.52
2018-06-22T00:53:57.597Z,10.50
2018-06-22T00:56:26.152Z,10.66
2018-06-22T00:58:54.761Z,10.74
2018-06-22T01:01:23.596Z,10.80
2018-06-22T01:03:52.204Z,10.74
2018-06-22T01:06:20.749Z,10.68
2018-06-22T01:08:49.413Z,10.56
2018-06-22T01:11:17.969Z,10.48
2018-06-22T01:13:46.547Z,10.34
2018-06-22T01:16:15.150Z,10.23
2018-06-22T01:18:43.736Z,10.06
2018-06-22T01:21:12.301Z,10.19
2018-06-22T01:23:40.910Z,10.26
2018-06-22T01:26:09.472Z,10.49
2018-06-22T01:28:38.468Z,9.91
2018-06-22T01:31:07.268Z,10.12
2018-06-22T01:33:35.848Z,9.89
2018-06-22T01:36:04.818Z,9.35
2018-06-22T01:38:33.442Z,9.45
2018-06-22T01:41:02.022Z,9.45
2018-06-22T01:43:30.593Z,9.54
2018-06-22T01:45:59.161Z,9.67
2018-06-22T01:48:27.732Z,9.64
2018-06-22T01:50:56.280Z,9.42
2018-06-22T01:53:24.853Z,9.51
2018-06-22T01:55:53.406Z,9.65
2018-06-22T01:58:21.980Z,9.71
2018-06-22T02:00:50.539Z,9.79
2018-06-22T02:03:19.145Z,9.78
2018-06-22T02:05:47.782Z,9.85
2018-06-22T02:08:16.357Z,9.71
2018-06-22T02:10:44.902Z,9.49
2018-06-22T02:13:13.472Z,9.69
2018-06-22T02:15:42.027Z,9.84
2018-06-22T02:18:10.632Z,9.85
2018-06-22T02:20:39.229Z,9.73
2018-06-22T02:23:08.212Z,9.68
2018-06-22T02:25:36.780Z,9.50
2018-06-22T02:28:05.493Z,9.19
2018-06-22T02:30:35.174Z,9.25
2018-06-22T02:33:03.778Z,9.12
2018-06-22T02:35:32.373Z,8.51
2018-06-22T02:38:00.952Z,8.76
2018-06-22T02:40:29.484Z,8.58
2018-06-22T02:42:58.137Z,8.85
2018-06-22T02:45:26.681Z,8.78
2018-06-22T02:47:55.253Z,8.61
2018-06-22T02:50:23.800Z,8.98
2018-06-22T02:52:52.435Z,9.08
2018-06-22T02:55:20.976Z,9.23
2018-06-22T02:57:49.577Z,9.33
2018-06-22T03:00:18.169Z,9.12
2018-06-22T03:02:46.729Z,8.93
2018-06-22T03:05:15.345Z,8.69
2018-06-22T03:07:43.912Z,8.72
2018-06-22T03:10:12.505Z,9.09
2018-06-22T03:12:41.049Z,8.99
2018-06-22T03:15:09.593Z,9.10
2018-06-22T03:17:38.138Z,8.96
2018-06-22T03:20:06.963Z,9.05
2018-06-22T03:22:35.478Z,9.02
2018-06-22T03:32:09.064Z,8.84
2018-06-22T03:34:37.626Z,8.94
2018-06-22T03:37:06.189Z,9.15
2018-06-22T03:39:35.263Z,8.94
2018-06-22T03:42:03.800Z,9.01
2018-06-22T03:44:32.361Z,9.06
2018-06-22T03:47:00.920Z,8.90
2018-06-22T03:49:29.436Z,8.94
2018-06-22T03:51:58.058Z,9.01
2018-06-22T03:54:26.556Z,9.01
2018-06-22T03:56:55.144Z,9.04
2018-06-22T03:59:23.888Z,8.83
2018-06-22T04:01:52.496Z,8.80
2018-06-22T04:04:21.064Z,8.94
2018-06-22T04:06:49.617Z,8.80
2018-06-22T04:09:18.120Z,8.57
2018-06-22T04:11:46.677Z,9.15
2018-06-22T04:14:15.213Z,9.12
2018-06-22T04:16:43.765Z,8.85
2018-06-22T04:19:12.280Z,8.92
2018-06-22T04:21:40.833Z,8.85
2018-06-22T04:24:09.977Z,9.12
2018-06-22T04:26:38.548Z,9.28
2018-06-22T04:29:07.138Z,9.48
2018-06-22T04:31:35.685Z,8.99
2018-06-22T04:34:04.242Z,9.09
2018-06-22T04:36:32.908Z,9.23
2018-06-22T04:39:04.493Z,9.32
2018-06-22T04:41:36.489Z,9.36
2018-06-22T04:44:05.558Z,9.39
2018-06-22T04:46:35.232Z,9.62
2018-06-22T04:49:03.781Z,9.57
2018-06-22T04:51:32.405Z,9.64
2018-06-22T04:54:01.490Z,9.73
2018-06-22T04:56:30.425Z,9.62
2018-06-22T04:58:59.009Z,9.76
2018-06-22T05:01:27.953Z,9.97
2018-06-22T05:03:56.956Z,9.78
2018-06-22T05:06:25.496Z,10.13
2018-06-22T05:08:55.090Z,10.28
2018-06-22T05:11:23.873Z,9.95
2018-06-22T05:13:52.432Z,10.05
2018-06-22T05:16:20.965Z,9.94
2018-06-22T05:18:49.632Z,10.31
2018-06-22T05:21:19.573Z,10.24
2018-06-22T05:23:48.173Z,10.71
2018-06-22T05:26:16.716Z,10.94
2018-06-22T05:28:45.264Z,10.80
2018-06-22T05:31:14.600Z,10.71
2018-06-22T05:33:43.560Z,10.56
2018-06-22T05:36:12.081Z,10.59
2018-06-22T05:38:40.645Z,10.87
2018-06-22T05:41:09.200Z,10.70
2018-06-22T05:43:37.752Z,10.39
2018-06-22T05:46:06.359Z,10.42
2018-06-22T05:48:35.588Z,10.42
2018-06-22T05:51:04.214Z,10.49
2018-06-22T05:53:32.708Z,10.55
2018-06-22T05:56:01.269Z,10.60
2018-06-22T05:58:29.789Z,10.66
2018-06-22T06:00:58.340Z,10.69
2018-06-22T06:03:26.955Z,10.83
2018-06-22T06:05:55.485Z,10.79
2018-06-22T06:08:24.006Z,10.87
2018-06-22T06:10:52.577Z,10.87
2018-06-22T06:13:21.089Z,10.81
2018-06-22T06:15:49.649Z,10.92
2018-06-22T06:18:18.385Z,10.99
2018-06-22T06:20:46.974Z,11.25
2018-06-22T06:23:15.545Z,11.33
2018-06-22T06:25:44.141Z,11.44
2018-06-22T06:28:12.656Z,11.43
2018-06-22T06:30:41.235Z,11.51
2018-06-22T06:33:09.921Z,11.65
2018-06-22T06:35:38.728Z,11.70
2018-06-22T06:38:07.521Z,11.75
2018-06-22T06:40:36.145Z,11.79
2018-06-22T06:43:04.745Z,11.83
2018-06-22T06:45:33.640Z,11.91
2018-06-22T06:48:02.191Z,11.92
2018-06-22T06:50:30.722Z,11.84
2018-06-22T06:52:59.275Z,12.00
2018-06-22T06:55:27.807Z,12.10
2018-06-22T06:57:56.647Z,11.99
2018-06-22T07:00:25.172Z,12.38
2018-06-22T07:02:53.774Z,12.77
2018-06-22T07:05:22.304Z,12.66
2018-06-22T07:07:50.864Z,12.67
2018-06-22T07:10:19.749Z,12.67
2018-06-22T07:12:48.304Z,12.71
2018-06-22T07:15:16.857Z,13.03
2018-06-22T07:17:46.116Z,13.35
2018-06-22T07:20:14.654Z,13.17
2018-06-22T07:22:43.261Z,13.34
2018-06-22T07:25:12.334Z,13.41
2018-06-22T07:27:40.860Z,13.52
2018-06-22T07:30:09.427Z,13.71
2018-06-22T07:32:37.951Z,13.65
2018-06-22T07:35:06.513Z,13.78
2018-06-22T07:37:36.868Z,13.74
2018-06-22T07:40:06.054Z,13.73
2018-06-22T07:42:34.576Z,14.10
2018-06-22T07:45:03.132Z,14.13
2018-06-22T07:47:31.661Z,13.94
2018-06-22T07:50:00.211Z,13.86
2018-06-22T07:52:28.761Z,14.03
2018-06-22T07:54:57.320Z,13.63
2018-06-22T07:57:25.856Z,13.90
2018-06-22T07:59:54.440Z,14.13
2018-06-22T08:02:22.958Z,13.94
2018-06-22T08:04:51.588Z,13.91
2018-06-22T08:07:20.105Z,14.64
2018-06-22T08:09:48.716Z,14.76
2018-06-22T08:12:17.272Z,14.87
2018-06-22T08:14:45.789Z,14.74
2018-06-22T08:17:14.324Z,15.10
2018-06-22T08:19:42.867Z,15.38
2018-06-22T08:22:11.435Z,15.02
2018-06-22T08:24:39.951Z,14.96
2018-06-22T08:27:08.503Z,14.88
2018-06-22T08:29:37.029Z,14.75
2018-06-22T08:32:06.145Z,14.71
2018-06-22T08:34:34.665Z,14.84
2018-06-22T08:37:03.229Z,14.84
2018-06-22T08:39:31.749Z,14.81
2018-06-22T08:42:00.535Z,14.83
2018-06-22T08:44:28.981Z,14.73
2018-06-22T08:46:57.537Z,14.71
2018-06-22T08:49:26.071Z,14.73
2018-06-22T08:51:54.624Z,14.82
2018-06-22T08:54:23.232Z,14.87
2018-06-22T08:56:51.788Z,15.10
2018-06-22T08:59:20.324Z,14.69
2018-06-22T09:01:48.884Z,15.03
2018-06-22T09:04:17.446Z,14.95
2018-06-22T09:06:45.993Z,14.97
2018-06-22T09:09:14.517Z,14.81
2018-06-22T09:11:43.089Z,14.64
2018-06-22T09:14:11.617Z,14.64
2018-06-22T09:16:40.273Z,14.96
2018-06-22T09:19:08.848Z,15.27
2018-06-22T09:21:37.729Z,15.95
2018-06-22T09:24:07.120Z,15.97
2018-06-22T09:26:36.804Z,16.00
2018-06-22T09:29:06.317Z,16.37
2018-06-22T09:31:34.840Z,16.70
2018-06-22T09:34:03.861Z,16.58
2018-06-22T09:36:33.448Z,16.53
2018-06-22T09:39:02.158Z,15.93
2018-06-22T09:41:31.717Z,15.62
2018-06-22T09:44:00.529Z,15.52
2018-06-22T09:46:29.052Z,15.60
2018-06-22T09:48:57.612Z,15.76
2018-06-22T09:51:26.133Z,16.15
2018-06-22T09:53:54.688Z,16.30
2018-06-22T09:56:23.214Z,16.36
2018-06-22T09:58:51.786Z,16.34
2018-06-22T10:01:20.317Z,16.46
2018-06-22T10:03:48.872Z,16.07
2018-06-22T10:06:17.473Z,15.97
2018-06-22T10:08:47.193Z,16.12
2018-06-22T10:11:24.891Z,16.02
2018-06-22T10:14:03.110Z,16.78
2018-06-22T10:16:43.796Z,16.73
2018-06-22T10:19:21.505Z,16.93
2018-06-22T10:21:59.827Z,16.74
2018-06-22T10:24:28.884Z,16.60
2018-06-22T10:26:57.445Z,16.37
2018-06-22T10:29:25.977Z,16.37
2018-06-22T10:31:54.810Z,16.43
2018-06-22T10:34:23.323Z,16.49
2018-06-22T10:36:51.877Z,16.42
2018-06-22T10:39:20.538Z,16.53
2018-06-22T10:41:49.016Z,16.53
2018-06-22T10:44:17.565Z,16.47
2018-06-22T10:46:46.160Z,16.60
2018-06-22T10:49:24.050Z,16.87
2018-06-22T10:52:01.094Z,16.98
2018-06-22T10:54:35.162Z,16.87
2018-06-22T10:57:14.616Z,16.90
2018-06-22T10:59:48.783Z,16.88
2018-06-22T11:02:24.114Z,16.70
2018-06-22T11:04:58.796Z,16.60
2018-06-22T11:07:34.849Z,16.53
2018-06-22T11:10:12.351Z,16.54
2018-06-22T11:12:52.130Z,16.57
2018-06-22T11:15:27.643Z,16.82
2018-06-22T11:18:01.522Z,16.52
2018-06-22T11:20:36.789Z,16.67
2018-06-22T11:23:12.704Z,16.91
2018-06-22T11:25:50.649Z,16.80
2018-06-22T11:28:29.860Z,17.09
2018-06-22T11:31:05.964Z,16.92
2018-06-22T11:33:40.789Z,17.19
2018-06-22T11:36:24.232Z,17.33
2018-06-22T11:39:01.268Z,17.57
2018-06-22T11:41:39.612Z,17.49
2018-06-22T11:44:15.073Z,17.61
2018-06-22T11:46:57.362Z,17.70
2018-06-22T11:49:26.189Z,17.41
2018-06-22T11:51:54.741Z,17.29
2018-06-22T11:54:23.312Z,17.45
2018-06-22T11:56:51.848Z,17.58
2018-06-22T11:59:20.397Z,18.10
2018-06-22T12:01:48.958Z,17.64
2018-06-22T12:04:17.568Z,18.16
2018-06-22T12:06:58.492Z,18.18
2018-06-22T12:09:38.574Z,17.65
2018-06-22T12:12:22.729Z,17.80
2018-06-22T12:14:58.398Z,17.77
2018-06-22T12:17:32.207Z,17.74
2018-06-22T12:20:01.477Z,18.08
2018-06-22T12:22:39.197Z,18.03
2018-06-22T12:25:16.934Z,17.95
2018-06-22T12:27:54.259Z,18.18
2018-06-22T12:30:36.024Z,18.10
2018-06-22T12:33:04.827Z,18.25
2018-06-22T12:35:33.417Z,18.69
2018-06-22T12:38:01.937Z,18.44
2018-06-22T12:40:30.992Z,18.29
2018-06-22T12:42:59.566Z,18.69
2018-06-22T12:45:28.171Z,18.55
2018-06-22T12:47:56.753Z,18.06
2018-06-22T12:50:25.371Z,17.86
2018-06-22T12:52:53.921Z,17.95
2018-06-22T12:55:22.543Z,17.85
2018-06-22T12:57:51.078Z,18.07
2018-06-22T13:00:19.646Z,17.82
2018-06-22T13:02:48.244Z,17.72
2018-06-22T13:05:17.014Z,17.92
2018-06-22T13:07:45.540Z,17.74
2018-06-22T13:10:14.093Z,18.13
2018-06-22T13:12:42.679Z,17.74
2018-06-22T13:15:11.208Z,17.60
2018-06-22T13:17:40.850Z,17.72
2018-06-22T13:20:09.645Z,18.10
2018-06-22T13:22:38.212Z,18.24
2018-06-22T13:25:06.739Z,17.78
2018-06-22T13:27:35.537Z,17.74
2018-06-22T13:30:06.031Z,17.36
2018-06-22T13:32:34.611Z,17.20
2018-06-22T13:35:03.184Z,17.28
2018-06-22T13:37:31.757Z,17.47
2018-06-22T13:40:00.286Z,17.27
2018-06-22T13:42:28.868Z,17.36
2018-06-22T13:44:57.621Z,17.30
2018-06-22T13:47:26.176Z,17.31
2018-06-22T13:49:54.712Z,17.02
2018-06-22T13:52:23.292Z,16.97
2018-06-22T13:54:51.846Z,17.15
2018-06-22T13:57:20.404Z,17.13
2018-06-22T13:59:48.942Z,17.04
2018-06-22T14:02:17.545Z,16.74
2018-06-22T14:04:51.435Z,16.84
2018-06-22T14:07:20.285Z,16.93
2018-06-22T14:09:48.845Z,16.94
2018-06-22T14:12:17.376Z,17.03
2018-06-22T14:14:45.944Z,17.22
2018-06-22T14:17:14.500Z,17.45
2018-06-22T14:19:43.052Z,17.47
2018-06-22T14:22:11.580Z,17.67
2018-06-22T14:24:40.833Z,17.80
2018-06-22T14:27:09.365Z,17.78
2018-06-22T14:29:37.925Z,17.69
2018-06-22T14:32:06.487Z,17.88
2018-06-22T14:34:35.060Z,18.00
2018-06-22T14:37:03.600Z,17.63
2018-06-22T14:39:32.149Z,17.94
2018-06-22T14:42:01.357Z,17.92
2018-06-22T14:44:29.928Z,17.63
2018-06-22T14:46:58.452Z,17.16
2018-06-22T14:49:27.029Z,17.24
2018-06-22T14:52:00.453Z,17.39
2018-06-22T14:54:34.157Z,17.54
2018-06-22T14:57:12.238Z,17.70
2018-06-22T14:59:46.322Z,18.09
2018-06-22T15:02:20.150Z,17.73
2018-06-22T15:04:53.874Z,18.02
2018-06-22T15:07:27.633Z,18.24
2018-06-22T15:09:58.927Z,18.21
2018-06-22T15:12:35.165Z,18.18
2018-06-22T15:15:09.893Z,18.00
2018-06-22T15:17:45.244Z,17.83
2018-06-22T15:20:13.980Z,17.70
2018-06-22T15:22:46.507Z,17.93
2018-06-22T15:25:16.322Z,17.82
2018-06-22T15:27:48.385Z,17.88
2018-06-22T15:30:22.187Z,17.90
2018-06-22T15:32:50.886Z,17.69
2018-06-22T15:35:28.872Z,17.95
2018-06-22T15:38:07.023Z,17.86
2018-06-22T15:40:43.057Z,17.64
2018-06-22T15:43:20.458Z,17.78
2018-06-22T15:45:57.538Z,17.65
2018-06-22T15:48:32.777Z,17.79
2018-06-22T15:51:09.398Z,17.97
2018-06-22T15:53:43.441Z,18.13
2018-06-22T15:56:16.157Z,18.51
2018-06-22T15:58:47.708Z,19.12
2018-06-22T16:01:17.625Z,19.77
2018-06-22T16:03:55.671Z,19.45
2018-06-22T16:06:29.318Z,18.89
2018-06-22T16:08:59.025Z,19.00
2018-06-22T16:11:30.944Z,19.38
2018-06-22T16:14:04.965Z,19.70
2018-06-22T16:16:53.651Z,19.53
2018-06-22T16:19:29.642Z,18.61
2018-06-22T16:22:07.724Z,17.96
2018-06-22T16:24:42.315Z,17.99
2018-06-22T16:27:15.976Z,18.03
2018-06-22T16:29:47.368Z,18.13
2018-06-22T16:32:20.821Z,18.25
2018-06-22T16:34:49.473Z,18.63
2018-06-22T16:37:24.404Z,19.55
2018-06-22T16:39:58.535Z,19.78
2018-06-22T16:42:29.280Z,18.88
2018-06-22T16:45:02.175Z,18.15
2018-06-22T16:47:35.217Z,18.28
2018-06-22T16:50:07.602Z,17.89
2018-06-22T16:52:38.109Z,18.03
2018-06-22T16:55:08.538Z,17.95
2018-06-22T16:57:39.049Z,19.58
2018-06-22T17:00:15.055Z,26.24
2018-06-22T17:02:49.032Z,26.77
2018-06-22T17:05:21.360Z,26.97
2018-06-22T17:08:00.299Z,28.84
2018-06-22T17:10:39.222Z,28.07
2018-06-22T17:16:36.191Z,28.92
2018-06-22T17:19:10.484Z,27.83
2018-06-22T17:21:46.663Z,26.75
2018-06-22T17:24:18.351Z,20.92
2018-06-22T17:26:49.101Z,19.31
2018-06-22T17:29:23.415Z,19.62
2018-06-22T17:32:05.673Z,20.53
2018-06-22T17:34:42.189Z,21.42
2018-06-22T17:37:26.748Z,20.44
2018-06-22T17:39:59.973Z,22.09
2018-06-22T17:42:34.342Z,26.07
2018-06-22T17:45:06.934Z,26.41
2018-06-22T17:47:38.810Z,25.40
2018-06-22T17:50:14.666Z,27.38
2018-06-22T17:52:48.494Z,25.61
2018-06-22T17:55:21.574Z,23.85
2018-06-22T17:57:57.042Z,22.78
2018-06-22T18:00:33.421Z,20.82
2018-06-22T18:03:11.310Z,20.33
2018-06-22T18:05:50.878Z,19.99
2018-06-22T18:08:28.091Z,20.06
2018-06-22T18:11:05.547Z,21.02
2018-06-22T18:13:39.515Z,21.52
2018-06-22T18:16:14.321Z,21.68
2018-06-22T18:18:48.333Z,21.22
2018-06-22T18:21:21.845Z,20.40
2018-06-22T18:23:56.293Z,20.76
2018-06-22T18:26:31.505Z,20.70
2018-06-22T18:29:07.181Z,20.28
2018-06-22T18:31:37.028Z,19.63
2018-06-22T18:34:09.073Z,20.38
2018-06-22T18:36:45.542Z,19.72
2018-06-22T18:39:19.179Z,19.25
2018-06-22T18:41:54.928Z,19.19
2018-06-22T18:44:29.993Z,19.17
2018-06-22T18:47:03.913Z,19.20
2018-06-22T18:49:37.503Z,18.69
2018-06-22T18:54:18.621Z,19.03
2018-06-22T18:56:54.953Z,18.19
2018-06-22T18:59:34.112Z,18.15
2018-06-22T19:02:11.531Z,17.54
2018-06-22T19:04:45.481Z,17.42
2018-06-22T19:07:19.381Z,17.15
2018-06-22T19:09:48.124Z,16.78
2018-06-22T19:12:16.766Z,16.74
2018-06-22T19:14:45.354Z,16.85
2018-06-22T19:17:18.929Z,16.29
2018-06-22T19:19:47.499Z,16.51
2018-06-22T19:22:16.070Z,16.53
2018-06-22T19:24:45.616Z,16.38
2018-06-22T19:27:27.312Z,16.21
2018-06-22T19:30:08.486Z,15.97
2018-06-22T19:32:52.142Z,15.57
2018-06-22T19:35:30.657Z,15.53
2018-06-22T19:38:13.088Z,15.39
2018-06-22T19:40:57.723Z,15.56
2018-06-22T19:43:44.164Z,15.42
2018-06-22T19:46:30.007Z,15.39
2018-06-22T19:49:16.493Z,15.28
2018-06-22T19:51:59.751Z,15.13
2018-06-22T19:54:40.183Z,15.13
2018-06-22T19:59:58.544Z,14.75
2018-06-22T20:02:38.324Z,14.78
2018-06-22T20:05:17.890Z,14.81
2018-06-22T20:08:02.247Z,14.50
2018-06-22T20:10:40.507Z,14.52
2018-06-22T20:13:09.876Z,14.61
2018-06-22T20:15:40.383Z,14.52
2018-06-22T20:18:09.221Z,14.49
2018-06-22T20:20:38.468Z,14.44
2018-06-22T20:23:07.152Z,14.33
2018-06-22T20:25:42.707Z,14.14
2018-06-22T20:28:11.427Z,14.14
2018-06-22T20:30:40.061Z,13.99
2018-06-22T20:33:08.950Z,13.99
2018-06-22T20:35:42.830Z,13.89
2018-06-22T20:38:17.086Z,13.82
2018-06-22T20:40:50.837Z,13.70
2018-06-22T20:43:24.597Z,13.76
2018-06-22T20:45:58.459Z,13.56
2018-06-22T20:48:32.032Z,13.57
2018-06-22T20:51:00.637Z,13.53
2018-06-22T20:53:29.203Z,13.44
2018-06-22T20:55:58.252Z,13.35
2018-06-22T20:58:27.613Z,13.21
2018-06-22T21:00:56.170Z,13.33
2018-06-22T21:03:24.783Z,13.38
2018-06-22T21:05:53.389Z,13.34
2018-06-22T21:08:21.993Z,13.24
2018-06-22T21:10:54.137Z,13.16
2018-06-22T21:13:24.101Z,13.04
2018-06-22T21:15:55.109Z,13.00
2018-06-22T21:18:29.985Z,13.00
2018-06-22T21:21:06.900Z,12.83
2018-06-22T21:23:39.449Z,12.79
2018-06-22T21:26:13.097Z,12.82
2018-06-22T21:28:51.090Z,12.81
2018-06-22T21:31:28.018Z,13.02
2018-06-22T21:34:03.680Z,12.67
2018-06-22T21:36:41.540Z,12.64
2018-06-22T21:39:12.985Z,12.82
2018-06-22T21:41:43.694Z,12.80
2018-06-22T21:44:15.149Z,12.44
2018-06-22T21:46:45.529Z,12.47
2018-06-22T21:49:16.258Z,12.35
2018-06-22T21:51:46.948Z,12.39
2018-06-22T21:54:16.076Z,12.24
2018-06-22T21:56:49.506Z,12.41
2018-06-22T21:59:20.022Z,12.50
2018-06-22T22:01:50.920Z,11.99
2018-06-22T22:04:22.920Z,11.65
2018-06-22T22:06:53.879Z,11.34
2018-06-22T22:09:23.116Z,11.42
2018-06-22T22:11:55.422Z,11.49
2018-06-22T22:14:26.473Z,11.67
2018-06-22T22:16:57.710Z,11.69
2018-06-22T22:19:28.333Z,11.61
2018-06-22T22:22:00.367Z,11.70
2018-06-22T22:24:31.220Z,11.90
2018-06-22T22:27:03.243Z,11.60
2018-06-22T22:29:34.003Z,11.68
2018-06-22T22:32:05.922Z,11.44
2018-06-22T22:34:40.009Z,11.34
2018-06-22T22:37:10.143Z,11.34
2018-06-22T22:39:40.608Z,11.24
2018-06-22T22:42:13.633Z,11.29
2018-06-22T22:44:44.767Z,11.25
2018-06-22T22:47:15.295Z,11.13
2018-06-22T22:49:47.598Z,11.03
2018-06-22T22:52:18.237Z,10.91
2018-06-22T22:54:49.801Z,11.16
2018-06-22T22:57:21.468Z,11.31
2018-06-22T22:59:50.428Z,11.25
2018-06-22T23:02:19.013Z,11.34
2018-06-22T23:04:47.645Z,11.39
2018-06-22T23:07:16.202Z,11.27
2018-06-22T23:09:44.853Z,11.10
2018-06-22T23:12:13.963Z,11.02
2018-06-22T23:14:42.599Z,10.82
2018-06-22T23:17:11.210Z,10.82
2018-06-22T23:19:39.999Z,10.87
2018-06-22T23:22:08.979Z,10.78
2018-06-22T23:24:37.562Z,10.65
2018-06-22T23:27:06.120Z,10.51
2018-06-22T23:29:34.755Z,10.48
2018-06-22T23:32:03.321Z,10.56
2018-06-22T23:34:31.896Z,10.68
2018-06-22T23:37:00.507Z,10.43
2018-06-22T23:39:29.068Z,10.69
2018-06-22T23:41:57.662Z,10.62
2018-06-22T23:44:26.285Z,10.53
2018-06-22T23:46:54.845Z,10.54
2018-06-22T23:49:23.440Z,10.44
2018-06-22T23:51:52.002Z,10.35
2018-06-22T23:54:20.585Z,10.08
2018-06-22T23:56:49.141Z,10.02
2018-06-22T23:59:17.725Z,9.92
